Time;durP1;ratioP1;P1;durP2;ratioP2;P2;SDS_P1;SDS_P2;PMS_P1;PMS_P2;Temp;Humidity;BMP_temperature;BMP_pressure;BME280_temperature;BME280_humidity;BME280_pressure;Samples;Min_cycle;Max_cycle;Signal;HPM_P1;HPM_P2
2023/04/02 00:01:42;;;;;;;;;5.75;5.50;;;;;12.57;54.16;100819.66;5059682;28;46022;-67
2023/04/02 00:04:22;;;;;;;;;7.00;6.75;;;;;12.52;54.17;100810.97;5059321;28;45329;-67
2023/04/02 00:07:15;;;;;;;;;10.00;8.50;;;;;12.54;54.22;100810.94;5059654;28;45327;-67
2023/04/02 00:09:40;;;;;;;;;7.00;6.00;;;;;12.53;54.16;100815.34;5059002;28;45455;-67
2023/04/02 00:12:16;;;;;;;;;6.00;5.00;;;;;12.52;54.17;100816.25;5059367;28;45467;-67
2023/04/02 00:14:47;;;;;;;;;5.75;5.75;;;;;12.50;54.03;100818.91;5059492;28;45175;-67
2023/04/02 00:17:13;;;;;;;;;6.00;5.50;;;;;12.45;53.99;100812.88;5066412;28;45383;-67
2023/04/02 00:19:55;;;;;;;;;7.00;7.00;;;;;12.48;54.12;100817.22;5065866;28;45424;-67
2023/04/02 00:22:26;;;;;;;;;7.50;5.25;;;;;12.46;54.16;100826.91;5059210;28;45513;-67
2023/04/02 00:24:54;;;;;;;;;4.25;4.25;;;;;12.46;54.10;100821.63;5059992;28;45298;-67
2023/04/02 00:27:20;;;;;;;;;8.50;6.75;;;;;12.43;54.00;100819.94;5071381;28;45468;-67
2023/04/02 00:29:54;;;;;;;;;7.25;6.00;;;;;12.44;53.89;100818.16;5062715;28;45498;-67
2023/04/02 00:32:24;;;;;;;;;6.75;6.75;;;;;12.37;54.15;100814.78;5062621;28;45427;-67
2023/04/02 00:34:50;;;;;;;;;4.00;4.00;;;;;12.42;54.15;100830.50;5070690;28;45299;-67
2023/04/02 00:37:22;;;;;;;;;5.75;5.00;;;;;12.39;54.13;100828.81;5079209;28;45320;-67
2023/04/02 00:39:49;;;;;;;;;6.50;6.00;;;;;12.40;54.20;100827.03;5082522;28;45454;-67
2023/04/02 00:42:17;;;;;;;;;4.75;4.00;;;;;12.41;54.07;100831.41;5048186;28;47573;-66
2023/04/02 00:44:44;;;;;;;;;5.00;5.00;;;;;12.40;54.04;100834.94;5082497;28;45161;-66
2023/04/02 00:47:17;;;;;;;;;9.25;6.00;;;;;12.39;53.99;100828.81;5082980;28;45338;-66
2023/04/02 00:49:43;;;;;;;;;6.75;5.75;;;;;12.35;54.31;100828.00;5082519;28;45284;-67
2023/04/02 00:52:12;;;;;;;;;5.00;4.25;;;;;12.35;54.12;100838.53;5064674;28;48685;-67
2023/04/02 00:54:44;;;;;;;;;5.00;5.00;;;;;12.33;54.05;100840.31;5082621;28;45378;-67
2023/04/02 00:57:24;;;;;;;;;5.75;5.75;;;;;12.32;54.28;100838.59;5082812;28;45331;-67
2023/04/02 01:00:11;;;;;;;;;5.50;4.50;;;;;12.31;54.38;100843.91;5082515;28;45324;-67
2023/04/02 01:02:39;;;;;;;;;6.25;4.75;;;;;12.28;54.19;100836.06;5082036;28;46390;-67
2023/04/02 01:05:15;;;;;;;;;4.75;4.00;;;;;12.27;54.62;100845.72;5082358;28;45347;-67
2023/04/02 01:07:46;;;;;;;;;3.25;2.00;;;;;12.26;54.46;100856.28;5064301;28;46559;-68
2023/04/02 01:10:29;;;;;;;;;5.25;4.25;;;;;12.24;54.67;100856.34;5081556;28;45532;-68
2023/04/02 01:13:00;;;;;;;;;5.00;5.00;;;;;12.24;54.50;100858.09;5082328;28;45303;-67
2023/04/02 01:15:39;;;;;;;;;5.00;3.00;;;;;12.22;54.39;100863.38;5064172;28;46201;-67
2023/04/02 01:18:19;;;;;;;;;7.00;7.00;;;;;12.21;54.73;100864.28;5082395;28;45232;-68
2023/04/02 01:21:15;;;;;;;;;3.00;3.00;;;;;12.19;54.49;100866.94;5070869;28;45524;-68
2023/04/02 01:23:56;;;;;;;;;7.25;7.25;;;;;12.18;54.25;100865.19;5075440;28;46148;-67
2023/04/02 01:26:35;;;;;;;;;9.50;7.25;;;;;12.19;54.48;100872.22;5075147;28;45178;-67
2023/04/02 01:29:36;;;;;;;;;7.50;7.50;;;;;12.18;54.46;100870.47;5061979;28;45324;-67
2023/04/02 01:32:05;;;;;;;;;8.25;7.75;;;;;12.18;54.55;100869.63;5068788;28;45488;-67
2023/04/02 01:34:31;;;;;;;;;6.00;6.00;;;;;12.18;54.54;100869.63;5072796;28;45369;-67
2023/04/02 01:37:24;;;;;;;;;5.75;5.75;;;;;12.17;54.52;100870.50;5077656;28;45265;-67
2023/04/02 01:40:16;;;;;;;;;6.00;5.00;;;;;12.15;54.62;100872.28;5076896;28;45566;-67
2023/04/02 01:42:44;;;;;;;;;8.25;7.50;;;;;12.12;54.73;100875.00;5061571;28;45325;-67
2023/04/02 01:45:15;;;;;;;;;5.00;5.00;;;;;12.11;54.73;100873.25;5061556;28;45316;-67
2023/04/02 01:47:42;;;;;;;;;5.75;5.75;;;;;12.10;54.70;100876.78;5043106;28;46575;-67
2023/04/02 01:50:32;;;;;;;;;5.75;5.00;;;;;12.08;54.68;100879.44;5071466;28;45431;-67
2023/04/02 01:53:04;;;;;;;;;4.00;4.00;;;;;12.07;55.03;100879.50;5081890;28;45344;-67
2023/04/02 01:55:40;;;;;;;;;7.75;6.50;;;;;12.06;54.88;100877.75;5081224;28;45564;-67
2023/04/02 01:58:07;;;;;;;;;3.00;3.00;;;;;12.02;54.79;100880.44;5081681;28;45363;-67
2023/04/02 02:00:35;;;;;;;;;4.25;4.25;;;;;11.99;54.88;100877.84;5081668;28;45478;-67
2023/04/02 02:03:02;;;;;;;;;6.75;4.00;;;;;11.98;54.98;100878.75;5081551;28;45521;-67
2023/04/02 02:05:28;;;;;;;;;6.00;4.25;;;;;11.96;54.96;100877.91;5081183;28;46167;-67
2023/04/02 02:07:56;;;;;;;;;5.00;3.25;;;;;11.95;54.94;100870.00;5081251;28;45451;-67
2023/04/02 02:10:26;;;;;;;;;3.00;3.00;;;;;11.95;55.03;100884.03;5081187;28;45304;-67
2023/04/02 02:12:51;;;;;;;;;3.25;3.25;;;;;11.92;54.75;100877.97;5081505;28;45533;-67
2023/04/02 02:15:22;;;;;;;;;5.00;3.75;;;;;11.92;54.95;100889.34;5081218;28;46534;-67
2023/04/02 02:17:49;;;;;;;;;5.25;4.25;;;;;11.92;55.03;100888.50;5063295;28;45421;-67
2023/04/02 02:20:15;;;;;;;;;3.50;3.00;;;;;11.92;55.08;100888.50;5063099;28;45447;-68
2023/04/02 02:22:50;;;;;;;;;3.25;3.00;;;;;11.89;54.95;100893.81;5079483;28;45525;-67
2023/04/02 02:25:23;;;;;;;;;3.50;3.50;;;;;11.90;55.05;100898.16;5067092;28;45165;-67
2023/04/02 02:27:58;;;;;;;;;4.00;4.00;;;;;11.89;54.96;100902.59;5068983;28;45374;-67
2023/04/02 02:30:31;;;;;;;;;3.75;3.00;;;;;11.87;55.01;100896.47;5074920;27;45343;-68
2023/04/02 02:32:56;;;;;;;;;2.00;1.00;;;;;11.87;55.25;100902.63;5067589;28;45482;-67
2023/04/02 02:35:28;;;;;;;;;3.00;2.50;;;;;11.87;54.97;100914.91;5073433;28;46366;-67
2023/04/02 02:38:18;;;;;;;;;4.50;3.75;;;;;11.86;55.17;100915.78;5076515;28;45323;-67
2023/04/02 02:40:47;;;;;;;;;5.00;4.00;;;;;11.86;55.19;100926.31;5068040;28;45312;-68
2023/04/02 02:43:15;;;;;;;;;4.25;3.00;;;;;11.83;55.14;100929.88;5042678;28;45333;-67
2023/04/02 02:45:44;;;;;;;;;3.50;3.50;;;;;11.82;55.15;100932.53;5060521;28;46232;-67
2023/04/02 02:48:16;;;;;;;;;2.00;2.00;;;;;11.81;55.17;100941.31;5060768;28;45319;-67
2023/04/02 02:50:43;;;;;;;;;2.75;2.00;;;;;11.75;55.31;100937.03;5059856;28;45320;-67
2023/04/02 02:53:20;;;;;;;;;1.00;1.00;;;;;11.75;55.39;100949.31;5060760;28;45617;-67
2023/04/02 02:55:49;;;;;;;;;2.00;1.00;;;;;11.74;55.44;100944.97;5060134;28;46071;-67
2023/04/02 02:58:22;;;;;;;;;3.00;1.00;;;;;11.73;55.45;100945.88;5060473;28;45296;-67
2023/04/02 03:00:48;;;;;;;;;1.00;1.00;;;;;11.70;55.57;100946.78;5060636;28;45232;-66
2023/04/02 03:03:20;;;;;;;;;0.00;0.00;;;;;11.67;55.55;100937.16;5060542;28;45409;-66
2023/04/02 03:05:51;;;;;;;;;1.00;0.75;;;;;11.65;55.51;100935.47;5060398;28;46601;-67
2023/04/02 03:08:31;;;;;;;;;1.00;1.00;;;;;11.61;55.42;100947.78;5042117;28;45282;-67
2023/04/02 03:11:22;;;;;;;;;2.50;1.00;;;;;11.60;55.40;100947.81;5042161;28;45250;-68
2023/04/02 03:13:51;;;;;;;;;3.00;1.00;;;;;11.59;55.49;100953.97;5058474;28;45488;-67
2023/04/02 03:16:26;;;;;;;;;0.00;0.00;;;;;11.57;55.64;100958.38;5059953;28;45332;-67
2023/04/02 03:19:01;;;;;;;;;1.00;1.00;;;;;11.55;55.68;100956.63;5068123;28;45303;-67
2023/04/02 03:21:34;;;;;;;;;0.00;0.00;;;;;11.54;55.74;100961.94;5064439;28;45294;-68
2023/04/02 03:24:16;;;;;;;;;0.00;0.00;;;;;11.53;55.54;100968.97;5042555;28;45178;-68
2023/04/02 03:26:48;;;;;;;;;1.50;1.50;;;;;11.52;55.66;100969.84;5073443;28;46353;-68
2023/04/02 03:29:16;;;;;;;;;1.00;0.00;;;;;11.52;55.38;100974.22;5060078;28;45447;-68
2023/04/02 03:31:49;;;;;;;;;0.75;0.75;;;;;11.53;55.60;100978.59;5060088;28;45404;-68
2023/04/02 03:34:26;;;;;;;;;1.00;1.00;;;;;11.51;55.78;100976.00;5063115;28;45426;-67
2023/04/02 03:37:13;;;;;;;;;0.00;0.00;;;;;11.51;55.76;100988.31;5065764;28;46019;-67
2023/04/02 03:39:45;;;;;;;;;1.00;1.00;;;;;11.48;55.75;100994.47;5076586;28;45398;-68
2023/04/02 03:42:20;;;;;;;;;1.00;1.00;;;;;11.47;55.63;100986.59;5060109;28;45336;-68
2023/04/02 03:44:55;;;;;;;;;1.50;1.00;;;;;11.48;55.92;100997.13;5059833;28;45424;-68
2023/04/02 03:47:37;;;;;;;;;1.00;1.00;;;;;11.44;55.82;100992.75;5059809;27;46232;-68
2023/04/02 03:50:10;;;;;;;;;1.50;1.50;;;;;11.44;56.27;100990.13;5064726;28;45494;-67
2023/04/02 03:52:37;;;;;;;;;3.00;3.00;;;;;11.44;55.95;100991.91;5062923;28;45325;-68
2023/04/02 03:55:14;;;;;;;;;2.25;2.25;;;;;11.37;55.88;100985.84;5080423;27;45399;-67
2023/04/02 03:57:52;;;;;;;;;3.00;3.00;;;;;11.43;55.91;101001.53;5075782;27;46373;-68
2023/04/02 04:00:40;;;;;;;;;3.25;3.25;;;;;11.44;55.98;100998.03;5068693;27;45465;-67
2023/04/02 04:03:13;;;;;;;;;3.75;3.75;;;;;11.44;55.92;101012.97;5070784;28;45230;-68
2023/04/02 04:05:48;;;;;;;;;5.00;5.00;;;;;11.42;56.04;101015.63;5072417;27;45316;-68
2023/04/02 04:08:24;;;;;;;;;3.00;3.00;;;;;11.41;55.93;101010.34;5090973;27;45337;-68
2023/04/02 04:10:52;;;;;;;;;7.50;6.75;;;;;11.40;55.80;101013.91;5070273;28;45308;-68
2023/04/02 04:13:26;;;;;;;;;5.00;5.00;;;;;11.38;56.04;101017.41;5068774;28;45182;-67
2023/04/02 04:16:00;;;;;;;;;7.50;6.00;;;;;11.38;55.95;101008.63;5063293;28;45399;-67
2023/04/02 04:18:33;;;;;;;;;5.50;4.50;;;;;11.36;55.93;101024.44;5062967;28;46561;-67
2023/04/02 04:21:02;;;;;;;;;9.25;5.25;;;;;11.34;56.07;101020.94;5062799;28;45264;-67
2023/04/02 04:23:34;;;;;;;;;7.75;5.00;;;;;11.33;56.09;101034.13;5076475;28;45348;-67
2023/04/02 04:26:08;;;;;;;;;6.00;5.50;;;;;11.30;56.05;101024.53;5066161;27;45354;-67
2023/04/02 04:28:59;;;;;;;;;7.00;6.75;;;;;11.29;56.03;101038.56;5078882;27;45339;-67
2023/04/02 04:31:38;;;;;;;;;7.25;3.50;;;;;11.27;56.20;101043.00;5044806;28;45368;-67
2023/04/02 04:34:18;;;;;;;;;8.00;8.00;;;;;11.24;55.99;101031.63;5064580;28;45311;-67
2023/04/02 04:36:54;;;;;;;;;7.75;6.25;;;;;11.21;56.12;101033.41;5078056;28;45431;-67
2023/04/02 04:39:28;;;;;;;;;9.00;7.75;;;;;11.22;56.13;101042.19;5082573;28;46109;-67
2023/04/02 04:41:58;;;;;;;;;8.50;6.00;;;;;11.21;56.06;101045.69;5083031;28;45374;-67
2023/04/02 04:44:27;;;;;;;;;8.00;7.00;;;;;11.22;55.88;101050.06;5081949;28;45513;-67
2023/04/02 04:47:15;;;;;;;;;7.50;6.75;;;;;11.21;56.24;101050.94;5082743;28;45265;-67
2023/04/02 04:49:49;;;;;;;;;8.25;7.00;;;;;11.13;56.22;101047.53;5064336;28;45529;-67
2023/04/02 04:52:43;;;;;;;;;7.25;6.00;;;;;11.11;55.98;101046.69;5082572;28;45363;-67
2023/04/02 04:55:41;;;;;;;;;11.25;8.50;;;;;11.19;56.08;101068.50;5068005;28;45427;-67
2023/04/02 04:58:23;;;;;;;;;11.25;8.75;;;;;11.18;56.07;101070.28;5082257;28;45368;-67
2023/04/02 05:01:11;;;;;;;;;12.25;10.00;;;;;11.09;56.11;101059.84;5077310;28;46162;-67
2023/04/02 05:03:56;;;;;;;;;11.25;9.75;;;;;11.16;56.17;101079.06;5062318;28;46832;-67
2023/04/02 05:06:34;;;;;;;;;8.00;8.00;;;;;11.15;56.20;101095.75;5073450;28;45484;-67
2023/04/02 05:09:22;;;;;;;;;12.75;11.00;;;;;11.14;56.16;101094.84;5082202;28;45533;-67
2023/04/02 05:12:03;;;;;;;;;8.50;8.50;;;;;11.11;56.18;101101.94;5065103;28;46232;-66
2023/04/02 05:14:35;;;;;;;;;9.25;9.25;;;;;11.14;56.17;101099.25;5082003;28;45252;-66
2023/04/02 05:17:09;;;;;;;;;10.25;8.75;;;;;11.14;56.23;101104.50;5082039;28;45449;-67
2023/04/02 05:19:43;;;;;;;;;12.50;10.50;;;;;11.13;56.13;101105.41;5082298;28;45347;-67
2023/04/02 05:22:39;;;;;;;;;12.25;10.75;;;;;11.11;56.31;101113.31;5072669;28;45443;-67
2023/04/02 05:25:29;;;;;;;;;15.25;11.25;;;;;11.12;56.22;101111.53;5050152;28;45540;-67
2023/04/02 05:28:14;;;;;;;;;10.00;8.00;;;;;11.12;55.83;101106.28;5061295;28;45353;-67
2023/04/02 05:30:51;;;;;;;;;11.00;10.00;;;;;11.12;56.22;101122.06;5052454;28;45507;-67
2023/04/02 05:33:25;;;;;;;;;12.50;8.00;;;;;11.11;56.15;101120.34;5046589;28;46168;-67
2023/04/02 05:36:21;;;;;;;;;9.50;7.75;;;;;11.11;56.13;101133.50;5078364;28;45213;-67
2023/04/02 05:38:49;;;;;;;;;12.00;8.75;;;;;11.09;56.33;101136.13;5076532;28;45245;-67
2023/04/02 05:41:25;;;;;;;;;7.75;5.75;;;;;11.08;56.50;101126.50;5065315;28;45555;-67
2023/04/02 05:44:09;;;;;;;;;8.75;8.75;;;;;11.09;56.21;101137.88;5061670;28;47166;-67
2023/04/02 05:46:42;;;;;;;;;8.00;7.00;;;;;11.09;56.23;101137.88;5068666;28;45414;-67
2023/04/02 05:49:22;;;;;;;;;12.25;7.75;;;;;11.08;56.22;101142.28;5066907;28;45289;-67
2023/04/02 05:51:52;;;;;;;;;13.50;12.00;;;;;11.09;56.36;101156.28;5061421;28;45325;-66
2023/04/02 05:54:37;;;;;;;;;14.75;10.50;;;;;11.09;56.31;101156.28;5061162;28;45353;-66
2023/04/02 05:57:14;;;;;;;;;10.00;8.25;;;;;11.09;56.25;101151.03;5061553;28;45531;-66
2023/04/02 05:59:48;;;;;;;;;10.50;10.00;;;;;11.10;56.38;101165.94;5043532;28;45336;-67
2023/04/02 06:02:30;;;;;;;;;9.50;9.50;;;;;11.11;56.31;101170.31;5043342;28;45941;-67
2023/04/02 06:05:04;;;;;;;;;12.00;11.50;;;;;11.10;56.22;101165.94;5061297;28;46185;-67
2023/04/02 06:07:51;;;;;;;;;11.00;10.25;;;;;11.08;56.35;101165.97;5043006;28;45253;-67
2023/04/02 06:10:27;;;;;;;;;15.00;11.75;;;;;11.06;56.47;101173.84;5065823;27;45486;-67
2023/04/02 06:13:02;;;;;;;;;11.75;9.00;;;;;11.04;56.35;101165.09;5072627;28;45617;-67
2023/04/02 06:15:28;;;;;;;;;9.75;9.50;;;;;11.04;56.42;101178.25;5062335;28;46061;-67
2023/04/02 06:18:15;;;;;;;;;5.25;4.75;;;;;11.06;56.29;101180.88;5060984;28;45249;-67
2023/04/02 06:20:40;;;;;;;;;13.00;9.25;;;;;11.04;56.58;101180.88;5061689;28;45278;-67
2023/04/02 06:23:13;;;;;;;;;11.25;9.00;;;;;11.04;56.45;101186.16;5076976;28;45402;-67
2023/04/02 06:25:45;;;;;;;;;9.50;8.50;;;;;11.04;56.38;101185.25;5067385;28;46358;-67
2023/04/02 06:28:18;;;;;;;;;12.00;12.00;;;;;11.03;56.41;101201.91;5065608;28;45289;-67
2023/04/02 06:30:44;;;;;;;;;10.00;9.25;;;;;11.02;56.58;101187.91;5060948;28;45276;-67
2023/04/02 06:33:14;;;;;;;;;10.50;9.00;;;;;11.01;56.51;101188.78;5060813;28;45614;-68
2023/04/02 06:35:41;;;;;;;;;8.50;8.50;;;;;11.01;56.22;101193.19;5085760;27;47023;-67
2023/04/02 06:38:16;;;;;;;;;12.25;10.50;;;;;11.00;56.45;101205.44;5082664;27;46106;-67
2023/04/02 06:40:55;;;;;;;;;12.00;11.00;;;;;10.99;56.56;101198.47;5068970;28;45416;-67
2023/04/02 06:43:36;;;;;;;;;9.50;8.50;;;;;10.99;56.72;101213.34;5067356;28;45241;-67
2023/04/02 06:46:14;;;;;;;;;12.75;10.25;;;;;10.97;56.56;101208.13;5064940;28;46214;-67
2023/04/02 06:48:42;;;;;;;;;12.25;12.25;;;;;10.96;56.51;101216.88;5060190;28;45320;-67
2023/04/02 06:51:12;;;;;;;;;14.00;14.00;;;;;10.96;56.57;101219.53;5060328;28;45429;-67
2023/04/02 06:53:42;;;;;;;;;12.00;11.00;;;;;10.94;56.59;101228.31;5060379;28;45457;-67
2023/04/02 06:56:26;;;;;;;;;9.75;9.00;;;;;10.95;56.67;101237.94;5070973;27;45180;-67
2023/04/02 06:58:52;;;;;;;;;11.00;10.25;;;;;10.92;56.40;101225.69;5065995;28;45198;-67
2023/04/02 07:01:25;;;;;;;;;10.50;8.00;;;;;10.92;56.57;101233.59;5060119;28;45393;-67
2023/04/02 07:03:51;;;;;;;;;10.50;10.00;;;;;10.92;56.55;101240.56;5060083;28;45336;-65
2023/04/02 07:06:19;;;;;;;;;14.50;12.50;;;;;10.93;56.35;101239.69;5041527;28;45405;-66
2023/04/02 07:08:45;;;;;;;;;11.25;9.75;;;;;10.94;56.57;101234.41;5064183;28;45380;-67
2023/04/02 07:11:19;;;;;;;;;13.75;12.25;;;;;10.93;56.51;101253.75;5059756;28;45334;-65
2023/04/02 07:13:45;;;;;;;;;13.25;11.25;;;;;10.92;56.62;101253.72;5058749;28;45405;-68
2023/04/02 07:16:19;;;;;;;;;16.50;13.00;;;;;10.92;56.45;101257.25;5082206;27;45353;-69
2023/04/02 07:18:45;;;;;;;;;14.00;11.25;;;;;10.91;56.42;101260.75;5075333;27;45438;-69
2023/04/02 07:21:10;;;;;;;;;13.25;11.50;;;;;10.90;56.46;101264.25;5062914;28;45351;-69
2023/04/02 07:23:36;;;;;;;;;5.50;5.25;;;;;10.89;56.65;101273.03;5073750;28;45478;-67
2023/04/02 07:26:02;;;;;;;;;13.50;10.75;;;;;10.90;56.73;101272.16;5045563;28;45965;-68
2023/04/02 07:28:28;;;;;;;;;15.25;11.25;;;;;10.88;56.68;101280.06;5068209;28;45499;-67
2023/04/02 07:30:55;;;;;;;;;11.25;11.00;;;;;10.91;56.73;101287.06;5069462;28;45525;-67
2023/04/02 07:33:23;;;;;;;;;11.50;11.50;;;;;10.92;56.60;101298.44;5066907;28;45572;-67
2023/04/02 07:35:50;;;;;;;;;13.75;12.00;;;;;10.92;56.53;101293.16;5066831;28;45286;-66
2023/04/02 07:38:15;;;;;;;;;12.00;11.25;;;;;10.92;56.55;101304.59;5068492;28;45483;-67
2023/04/02 07:40:41;;;;;;;;;11.00;11.00;;;;;10.93;56.54;101301.06;5068880;28;45389;-67
2023/04/02 07:43:06;;;;;;;;;14.75;12.50;;;;;10.94;56.67;101301.94;5068411;28;45370;-67
2023/04/02 07:45:32;;;;;;;;;14.50;14.00;;;;;10.94;56.56;101315.09;5070194;28;45356;-69
2023/04/02 07:48:02;;;;;;;;;15.75;14.50;;;;;10.92;56.42;101301.94;5072887;28;45439;-70
2023/04/02 07:50:28;;;;;;;;;13.25;12.50;;;;;10.94;56.62;101312.44;5067523;28;45327;-69
2023/04/02 07:52:53;;;;;;;;;16.00;13.25;;;;;10.97;56.82;101320.31;5052757;28;45583;-69
2023/04/02 07:55:19;;;;;;;;;17.25;14.50;;;;;10.96;56.57;101327.34;5068468;28;56012;-69
2023/04/02 07:57:50;;;;;;;;;15.50;12.25;;;;;10.97;56.59;101321.19;5049185;28;45357;-69
2023/04/02 08:00:16;;;;;;;;;18.25;14.75;;;;;10.98;56.58;101336.09;5068150;28;45459;-69
2023/04/02 08:02:42;;;;;;;;;16.75;15.25;;;;;10.99;56.65;101334.34;5069082;28;45340;-69
2023/04/02 08:05:09;;;;;;;;;18.50;17.00;;;;;10.98;56.63;101325.59;5064378;28;46229;-69
2023/04/02 08:07:35;;;;;;;;;20.25;18.25;;;;;10.99;56.51;101342.22;5059587;28;45293;-69
2023/04/02 08:10:01;;;;;;;;;15.50;15.50;;;;;10.98;56.73;101338.72;5059112;28;45415;-69
2023/04/02 08:12:26;;;;;;;;;19.75;18.00;;;;;10.98;56.43;101335.22;5059687;28;45313;-69
2023/04/02 08:14:51;;;;;;;;;21.75;16.75;;;;;10.98;56.87;101349.25;5059184;28;46018;-69
2023/04/02 08:17:17;;;;;;;;;20.00;17.00;;;;;10.97;56.53;101344.88;5059266;28;45470;-69
2023/04/02 08:19:43;;;;;;;;;17.25;15.50;;;;;10.98;56.77;101346.63;5058304;28;45521;-69
2023/04/02 08:22:09;;;;;;;;;18.50;16.25;;;;;10.98;56.78;101353.63;5059345;28;45335;-69
2023/04/02 08:24:34;;;;;;;;;20.50;17.25;;;;;10.99;56.90;101355.38;5058221;28;46037;-69
2023/04/02 08:27:01;;;;;;;;;17.75;17.75;;;;;10.97;56.62;101350.13;5072801;28;45304;-69
2023/04/02 08:29:30;;;;;;;;;18.75;16.25;;;;;10.97;56.76;101349.22;5059316;28;45477;-69
2023/04/02 08:31:56;;;;;;;;;19.00;16.25;;;;;10.96;56.89;101353.63;5040866;28;45637;-69
2023/04/02 08:34:22;;;;;;;;;14.00;13.50;;;;;10.95;56.75;101351.88;5063206;28;45416;-69
2023/04/02 08:36:47;;;;;;;;;14.50;12.25;;;;;10.95;56.67;101359.78;5074213;28;49117;-69
2023/04/02 08:39:13;;;;;;;;;15.00;11.25;;;;;10.94;56.75;101350.13;5079250;28;45417;-69
2023/04/02 08:42:02;;;;;;;;;16.75;13.50;;;;;10.96;56.75;101361.53;5059242;28;45367;-70
2023/04/02 08:45:06;;;;;;;;;14.00;13.25;;;;;10.97;56.57;101368.53;5058981;28;46315;-69
2023/04/02 08:47:36;;;;;;;;;14.00;13.25;;;;;10.95;56.66;101375.56;5058488;28;45322;-69
2023/04/02 08:50:25;;;;;;;;;15.00;13.00;;;;;10.99;56.51;101373.78;5058884;28;45737;-69
2023/04/02 08:52:51;;;;;;;;;12.50;12.00;;;;;10.96;56.57;101374.66;5059429;28;45389;-69
2023/04/02 08:55:28;;;;;;;;;12.50;11.50;;;;;10.98;56.70;101386.06;5061768;28;45254;-69
2023/04/02 08:58:29;;;;;;;;;17.25;16.50;;;;;10.99;56.71;101398.34;5069869;28;45509;-71
2023/04/02 09:00:56;;;;;;;;;17.00;14.25;;;;;10.98;56.69;101398.31;5035554;27;45752;-65
2023/04/02 09:03:27;;;;;;;;;19.25;14.00;;;;;10.99;56.52;101406.22;5071966;28;45992;-70
2023/04/02 09:05:54;;;;;;;;;15.75;13.50;;;;;11.00;56.64;101407.94;5061884;28;47545;-64
2023/04/02 09:08:23;;;;;;;;;17.50;16.75;;;;;11.02;56.63;101416.72;5061926;28;45260;-69
2023/04/02 09:10:54;;;;;;;;;12.50;11.00;;;;;11.03;56.53;101417.59;5068863;28;45467;-67
2023/04/02 09:13:25;;;;;;;;;14.00;11.00;;;;;11.04;56.85;101414.06;5067709;28;45372;-66
2023/04/02 09:15:59;;;;;;;;;11.75;10.50;;;;;11.03;56.70;101422.84;5043676;28;47518;-66
2023/04/02 09:18:29;;;;;;;;;17.00;14.75;;;;;11.04;56.69;101430.75;5046510;28;45432;-67
2023/04/02 09:20:54;;;;;;;;;18.50;14.50;;;;;11.04;56.84;101429.84;5072013;28;45419;-64
2023/04/02 09:23:22;;;;;;;;;16.00;12.75;;;;;11.06;56.83;101433.38;5061530;28;45284;-67
2023/04/02 09:25:50;;;;;;;;;12.75;11.75;;;;;11.06;56.76;101438.63;5070680;28;45319;-68
2023/04/02 09:28:19;;;;;;;;;12.25;11.00;;;;;11.06;56.68;101434.22;5065468;28;45350;-66
2023/04/02 09:31:30;;;;;;;;;21.25;19.00;;;;;11.07;56.61;101437.75;5061663;28;45237;-67
2023/04/02 09:33:56;;;;;;;;;18.00;15.25;;;;;11.06;56.96;101439.47;4960798;28;45363;-66
2023/04/02 09:36:38;;;;;;;;;20.00;15.50;;;;;11.00;56.64;101438.66;4960878;28;46065;-62
2023/04/02 09:39:27;;;;;;;;;18.25;16.00;;;;;11.07;56.77;101448.28;5034739;28;45307;-67
2023/04/02 09:41:52;;;;;;;;;16.25;15.75;;;;;11.01;56.82;101445.66;5069903;28;45513;-68
2023/04/02 09:44:22;;;;;;;;;20.75;18.00;;;;;11.06;56.70;101450.00;5048668;28;45538;-64
2023/04/02 09:46:52;;;;;;;;;13.50;13.50;;;;;11.09;56.68;101459.63;5042864;28;46746;-62
2023/04/02 09:49:22;;;;;;;;;16.50;16.50;;;;;11.09;56.58;101462.25;5061054;28;45545;-67
2023/04/02 09:52:19;;;;;;;;;22.00;19.25;;;;;11.08;56.56;101451.75;5061217;28;45359;-72
2023/04/02 09:55:03;;;;;;;;;18.50;17.00;;;;;11.08;56.66;101462.28;5042810;28;45396;-70
2023/04/02 09:57:29;;;;;;;;;17.75;17.75;;;;;11.10;56.88;101476.31;5061086;28;45241;-71
2023/04/02 10:00:07;;;;;;;;;19.00;16.00;;;;;11.14;57.06;101475.41;5060942;28;45254;-72
2023/04/02 10:02:32;;;;;;;;;17.50;16.50;;;;;11.17;56.75;101484.16;5061105;28;45257;-73
2023/04/02 10:05:06;;;;;;;;;15.75;14.75;;;;;11.17;57.00;101476.28;5061201;28;45355;-73
2023/04/02 10:07:42;;;;;;;;;17.00;15.75;;;;;11.24;56.99;101489.41;5068132;28;46120;-72
2023/04/02 10:10:31;;;;;;;;;20.50;15.00;;;;;11.25;57.23;101486.75;5065688;28;45395;-69
2023/04/02 10:13:06;;;;;;;;;15.75;12.00;;;;;11.25;57.11;101485.88;5042848;28;45240;-68
2023/04/02 10:16:05;;;;;;;;;16.00;15.00;;;;;11.29;56.99;101500.78;5060878;28;45276;-68
2023/04/02 10:18:44;;;;;;;;;14.75;14.75;;;;;11.32;56.96;101490.22;5085810;27;46312;-67
2023/04/02 10:21:16;;;;;;;;;23.00;15.00;;;;;11.33;56.93;101490.22;5066134;28;45487;-68
2023/04/02 10:23:41;;;;;;;;;23.50;21.50;;;;;11.33;56.86;101500.75;5064791;27;45253;-68
2023/04/02 10:26:49;;;;;;;;;13.50;12.50;;;;;11.38;56.80;101506.88;5062080;28;45614;-68
2023/04/02 10:29:26;;;;;;;;;14.50;12.50;;;;;11.40;57.12;101506.00;5071631;28;46650;-68
2023/04/02 10:32:10;;;;;;;;;13.25;12.25;;;;;11.40;56.81;101520.00;5061321;28;45265;-68
2023/04/02 10:34:46;;;;;;;;;14.50;12.75;;;;;11.44;56.71;101518.25;5046937;28;45249;-69
2023/04/02 10:37:34;;;;;;;;;14.25;14.25;;;;;11.44;56.81;101521.72;5079571;28;45224;-69
2023/04/02 10:40:09;;;;;;;;;17.50;15.25;;;;;11.44;56.80;101524.38;5073945;28;45531;-68
2023/04/02 10:42:53;;;;;;;;;16.50;13.00;;;;;11.49;56.78;101529.63;5059983;28;45327;-71
2023/04/02 10:45:43;;;;;;;;;24.25;17.00;;;;;11.51;56.74;101533.13;5042217;28;45538;-70
2023/04/02 10:48:39;;;;;;;;;12.00;10.75;;;;;11.54;56.69;101544.47;5042066;28;45360;-74
2023/04/02 10:51:39;;;;;;;;;16.00;16.00;;;;;11.52;56.65;101538.38;5059266;28;45515;-70
2023/04/02 10:54:36;;;;;;;;;20.25;15.75;;;;;11.57;56.80;101545.34;5089562;27;45365;-72
2023/04/02 10:57:08;;;;;;;;;16.00;14.25;;;;;11.58;56.68;101542.72;5065799;28;45422;-76
2023/04/02 10:59:39;;;;;;;;;15.25;13.75;;;;;11.56;56.58;101547.13;5059583;28;45545;-71
2023/04/02 11:02:23;;;;;;;;;19.25;12.50;;;;;11.62;56.64;101551.47;5041481;28;47216;-69
2023/04/02 11:04:51;;;;;;;;;24.25;16.00;;;;;11.65;56.56;101554.97;5059806;28;45397;-67
2023/04/02 11:07:22;;;;;;;;;19.00;15.75;;;;;11.63;56.47;101553.22;5059817;28;45615;-75
2023/04/02 11:09:52;;;;;;;;;16.75;13.25;;;;;11.68;56.73;101565.50;5059630;28;45333;-70
2023/04/02 11:12:24;;;;;;;;;17.25;15.75;;;;;11.67;56.54;101566.38;5059357;28;46779;-74
2023/04/02 11:14:51;;;;;;;;;24.50;19.75;;;;;11.73;56.49;101568.09;5041296;28;46425;-73
2023/04/02 11:17:17;;;;;;;;;18.50;14.25;;;;;11.74;56.37;101568.97;5042145;28;45280;-72
2023/04/02 11:19:43;;;;;;;;;18.75;17.00;;;;;11.73;56.34;101572.47;5044239;27;45822;-75
2023/04/02 11:22:16;;;;;;;;;16.75;16.75;;;;;11.77;56.56;101568.94;5081555;27;46079;-76
2023/04/02 11:24:50;;;;;;;;;24.25;19.00;;;;;11.79;56.44;101575.09;5059696;28;45419;-75
2023/04/02 11:27:32;;;;;;;;;21.00;17.50;;;;;11.80;56.41;101576.84;5075527;27;45228;-74
2023/04/02 11:30:17;;;;;;;;;21.50;19.00;;;;;11.80;56.43;101571.56;5064987;28;45544;-76
2023/04/02 11:32:48;;;;;;;;;17.75;15.75;;;;;11.83;56.50;101571.53;5067396;28;45407;-63
2023/04/02 11:35:31;;;;;;;;;19.75;17.25;;;;;11.85;56.54;101578.53;5077483;27;45294;-65
2023/04/02 11:38:02;;;;;;;;;23.75;18.50;;;;;11.87;56.44;101582.06;5083379;27;45441;-65
2023/04/02 11:40:49;;;;;;;;;16.25;14.25;;;;;11.87;56.44;101579.41;5070100;28;45462;-66
2023/04/02 11:43:33;;;;;;;;;17.50;16.50;;;;;11.93;56.31;101585.53;5059538;28;46894;-65
2023/04/02 11:46:17;;;;;;;;;22.00;17.50;;;;;11.94;55.79;101588.16;5041835;28;45324;-66
2023/04/02 11:48:42;;;;;;;;;15.50;14.50;;;;;11.96;56.26;101594.31;5059866;28;45391;-68
2023/04/02 11:51:21;;;;;;;;;23.00;20.00;;;;;12.01;56.26;101586.38;5059537;28;45353;-63